Terminal Aerodrome Forecast
Issued by NWS Paducah, KY

Home | Current Version | Previous Version | Text Only | Print | Product List | Glossary Off
Versions: 1 2 3 4 5 6 7 8 9 10 11 12 13 14 15

000
FTUS43 KPAH 261720
TAFPAH
TAF
KPAH 261720Z 2618/2718 36012G20KT P6SM SCT025 OVC050
     FM261900 36012G20KT P6SM SCT015 OVC025
      TEMPO 2619/2621 5SM -SN OVC015
     FM262300 36011KT P6SM OVC020
     FM270600 36008KT P6SM SCT025 BKN040
     FM271500 01010KT P6SM BKN025=

USA.gov is the U.S. government's official web portal to all federal, state and local government web resources and services.